Weather observations for the past three days for
Grand Marais/Cook County Airport
Metric (Imperial)
Date Time (cdt) Wind (kph) Vis. (km) Weather Sky Cond. Temperature (ºC) Relative Humidity Wind Chill (°C) Heat Index (°C) Pressure Precipitation (cm)
Air Dwpt 6 hour altimeter (cm) sea level (mb) 1 hr 3 hr 6 hr
Max. Min.
29 11:35 Calm 16.09 Partly Cloudy SCT065 19 12 64% 76.17 0.0
29 11:15 SE 9 16.09 Partly Cloudy SCT075 18 12 68% 76.17 0.0
29 10:55 S 6 16.09 Partly Cloudy SCT075 17 11 68% 76.17 0.0
29 10:35 SE 9 16.09 Partly Cloudy SCT075 17 11 68% 76.2 0.0
29 10:21 SE 7 16.09 Partly Cloudy SCT075 SCT100 17 11 68% 76.2 0.0
29 09:15 Calm 16.09 Fair CLR 16 12 77% 76.2 0.0
29 08:55 Calm 16.09 Fair CLR 15 11 77% 76.23 0.0
29 08:35 Calm 16.09 Fair CLR 13 10 82% 76.23 0.0
29 08:15 N 6 16.09 Fair CLR 12 11 94% 76.23 0.0
29 07:55 Calm 16.09 Fair CLR 12 11 94% 76.25 0.0
29 07:35 Calm 16.09 Fair CLR 11 10 94% 76.25 0.0
29 07:15 Calm 16.09 Fair CLR 9 9 100% 76.25 0.0
29 06:55 NE 6 16.09 Fair CLR 9 9 100% 76.23 0.0
29 06:35 N 6 16.09 Fair CLR 8 8 100% 76.23 0.0
29 06:15 Calm 16.09 Fair CLR 8 7 93% 76.25 0.0
29 05:55 Calm 16.09 Fair CLR 7 7 100% 76.23 0.0
29 05:35 Calm 16.09 Fair CLR 7 7 100% 76.25 0.0
29 05:15 Calm 16.09 Fair CLR 7 7 100% 76.25 0.0
29 04:55 Calm 16.09 Fair CLR 7 7 100% 76.28 0.0
29 04:35 Calm 16.09 Fair CLR 7 7 100% 76.28 0.0
29 04:15 Calm 16.09 Fair CLR 7 7 100% 76.25 0.0
29 03:55 N 6 16.09 Fair CLR 7 7 100% 76.28 0.0
29 03:35 Calm 16.09 Fair CLR 7 7 100% 76.28 0.0
29 03:15 N 6 16.09 Fair CLR 7 7 100% 76.28 0.0
29 02:55 Calm 16.09 Fair CLR 7 7 100% 76.3 0.0
29 02:35 Calm 16.09 Fair CLR 7 7 100% 76.3 0.0
29 02:15 Calm 16.09 Fair CLR 7 7 100% 76.33 0.0
29 01:55 Calm 16.09 Fair CLR 7 7 100% 76.33 0.0
29 01:35 Calm 16.09 Fair CLR 8 7 93% 76.33 0.0
29 01:15 Calm 16.09 Fair CLR 8 8 100% 76.35 0.0
29 00:55 Calm 16.09 Fair CLR 8 8 100% 76.33 0.0
29 00:35 Calm 16.09 Fair CLR 8 8 100% 76.35 0.0
29 00:15 Calm 16.09 Fair CLR 9 9 100% 76.35 0.0
28 23:55 Calm 16.09 Fair CLR 9 8 94% 76.35 0.0
28 23:35 Calm 16.09 Fair CLR 10 9 94% 76.35 0.0
28 23:15 Calm 16.09 Fair CLR 10 9 94% 76.35 0.0
28 22:55 Calm 16.09 Fair CLR 9 8 94% 76.35 0.0
28 22:35 Calm 16.09 Fair CLR 10 9 94% 76.35 0.0
28 22:15 Calm 16.09 Fair CLR 10 9 94% 76.35 0.0
28 21:55 Calm 16.09 Fair CLR 11 9 88% 76.38 0.0
28 21:35 Calm 16.09 Fair CLR 11 9 88% 76.38 0.0
28 21:15 Calm 16.09 Fair CLR 11 10 94% 76.38 0.0
28 20:55 Calm 16.09 Fair CLR 11 11 100% 76.4 0.0
28 20:35 Calm 16.09 Fair CLR 11 10 94% 76.38 0.0
28 20:15 Calm 16.09 Fair CLR 12 10 88% 76.38 0.0
28 19:55 Calm 16.09 Fair CLR 12 10 88% 76.38 0.0
28 19:35 Calm 16.09 Fair CLR 13 10 82% 76.38 0.0
28 19:23 Calm 16.09 Fair CLR 13 10 82% 76.38 0.0
28 18:35 S 6 16.09 Fair CLR 16 10 68% 76.4 0.0
28 18:15 S 11 16.09 Fair CLR 17 10 64% 76.4 0.0
28 17:55 S 9 16.09 Fair CLR 17 9 60% 76.43 0.0
28 17:35 SW 15 16.09 Fair CLR 18 9 56% 76.4 0.0
28 17:15 S 13 16.09 Fair CLR 18 10 60% 76.4 0.0
28 16:55 S 11 16.09 Fair CLR 19 11 60% 76.4 0.0
28 16:35 S 11 16.09 Fair CLR 19 10 56% 76.4 0.0
28 16:15 S 11 16.09 Fair CLR 19 11 60% 76.4 0.0
28 15:55 S 9 16.09 Fair CLR 19 10 56% 76.43 0.0
28 15:35 S 13 16.09 Fair CLR 19 10 56% 76.45 0.0
28 15:15 S 13 16.09 Fair CLR 19 10 56% 76.45 0.0
28 14:55 S 9 16.09 Fair CLR 18 10 60% 76.48 0.0
28 14:35 S 15 16.09 Fair CLR 19 11 60% 76.5 0.0
28 14:15 S 13 16.09 Fair CLR 19 11 60% 76.5 0.0
28 13:55 S 13 16.09 Fair CLR 19 11 60% 76.53 0.0
28 13:35 S 11 16.09 Fair CLR 19 11 60% 76.53 0.0
28 13:15 S 13 16.09 Fair CLR 19 11 60% 76.53 0.0
28 12:55 S 7 16.09 Fair CLR 19 11 60% 76.53 0.0
28 12:35 S 9 16.09 Fair CLR 19 7 46% 76.56 0.0
28 12:15 SW 7 16.09 Fair CLR 19 7 46% 76.56 0.0
28 11:55 S 6 16.09 Fair CLR 19 7 46% 76.58 0.0
28 11:35 W 7 16.09 Fair CLR 19 7 46% 76.58 0.0
28 11:33 SW 6 16.09 Fair CLR 19 7 46% 76.58 0.0
28 10:55 W 6 16.09 Partly Cloudy SCT043 18 8 52% 76.61 0.0
28 10:35 NW 6 16.09 Partly Cloudy SCT041 18 7 49% 76.63 0.0
28 10:15 NW 9 16.09 Partly Cloudy SCT039 18 8 52% 76.63 0.0
28 09:55 N 9 16.09 Fair CLR 17 8 56% 76.61 0.0
28 09:35 Calm 16.09 Fair CLR 17 8 56% 76.61 0.0
28 09:15 Calm 16.09 Fair CLR 17 9 60% 76.61 0.0
28 08:55 N 6 16.09 Fair CLR 16 9 63% 76.61 0.0
28 08:35 Calm 16.09 Fair CLR 15 11 77% 76.61 0.0
28 08:15 Calm 16.09 Fair CLR 13 11 88% 76.61 0.0
28 07:55 N 6 16.09 Fair CLR 12 10 88% 76.61 0.0
28 07:35 Calm 16.09 Fair CLR 10 9 94% 76.61 0.0
28 07:15 Calm 16.09 Fair CLR 8 8 100% 76.61 0.0
28 06:55 N 6 16.09 Fair CLR 6 6 100% 76.58 0.0
28 06:35 N 6 16.09 Fair CLR 6 6 100% 76.58 0.0
28 06:15 N 6 16.09 Fair CLR 6 6 100% 76.58 0.0
28 05:55 N 6 16.09 Fair CLR 6 6 100% 76.56 0.0
28 05:35 N 6 16.09 Fair CLR 6 6 100% 76.56 0.0
28 05:15 Calm 16.09 Fair CLR 7 6 93% 76.56 0.0
28 04:55 N 7 16.09 Fair CLR 8 8 100% 7 76.53 0.0
28 04:35 N 7 16.09 Fair CLR 6 6 100% 5 76.53 0.0
28 04:15 N 6 16.09 Fair CLR 8 7 93% 76.56 0.0
28 03:55 N 6 16.09 Fair CLR 8 8 100% 76.53 0.0
28 03:35 N 7 16.09 Fair CLR 7 7 100% 6 76.53 0.0
28 03:15 N 9 16.09 Fair CLR 8 7 93% 7 76.53 0.0
28 02:55 N 7 16.09 Fair CLR 7 7 100% 6 76.53 0.0
28 02:35 N 7 16.09 Fair CLR 8 8 100% 7 76.5 0.0
28 02:15 N 7 16.09 Fair CLR 8 8 100% 7 76.5 0.0
28 01:55 N 7 16.09 Fair CLR 8 8 100% 7 76.5 0.0
28 01:35 N 7 16.09 Fair CLR 8 8 100% 7 76.53 0.0
28 01:15 NE 6 16.09 Fair CLR 9 8 94% 76.5 0.0
28 00:55 N 6 16.09 Fair CLR 10 9 94% 76.5 0.0
28 00:35 N 6 16.09 Fair CLR 10 9 94% 76.5 0.0
28 00:15 N 9 16.09 Partly Cloudy SCT070 11 9 88% 76.5 0.0
27 23:55 N 9 16.09 Partly Cloudy SCT060 11 9 88% 76.48 0.0
27 23:35 N 7 16.09 Mostly Cloudy BKN060 11 9 88% 76.48 0.0
27 23:15 N 7 16.09 Partly Cloudy SCT060 11 9 88% 76.45 0.0
27 22:55 N 7 16.09 Partly Cloudy SCT060 11 9 88% 76.45 0.0
27 22:35 N 9 16.09 Fair CLR 11 9 88% 76.45 0.0
27 22:15 N 7 16.09 Fair CLR 11 9 88% 76.45 0.0
27 21:55 N 9 16.09 Fair CLR 11 9 88% 76.45 0.0
Date Time (cdt) Wind (kph) Vis. (km) Weather Sky Cond. Air Dwpt Max. Min. Relative Humidity Wind Chill (°C) Heat Index (°C) altimeter (cm) sea level (mb) 1 hr 3 hr 6 hr
6 hour
Temperature (ºC) Pressure Precipitation (cm)